sensor_id;sensor_type;location;lat;lon;timestamp;temperature;humidity
16732;DHT22;8484;50.904;9.192;2023-07-13T00:01:43;17.40;99.90
16732;DHT22;8484;50.904;9.192;2023-07-13T00:04:13;17.30;99.90
16732;DHT22;8484;50.904;9.192;2023-07-13T00:06:40;17.20;99.90
16732;DHT22;8484;50.904;9.192;2023-07-13T00:09:10;17.40;99.90
16732;DHT22;8484;50.904;9.192;2023-07-13T00:11:38;17.40;99.90
16732;DHT22;8484;50.904;9.192;2023-07-13T00:14:05;16.80;99.90
16732;DHT22;8484;50.904;9.192;2023-07-13T00:16:33;16.50;99.90
16732;DHT22;8484;50.904;9.192;2023-07-13T00:19:00;16.30;99.90
16732;DHT22;8484;50.904;9.192;2023-07-13T00:21:29;16.50;99.90
16732;DHT22;8484;50.904;9.192;2023-07-13T00:23:57;16.70;99.90
16732;DHT22;8484;50.904;9.192;2023-07-13T00:26:24;16.70;99.90
16732;DHT22;8484;50.904;9.192;2023-07-13T00:28:51;16.40;99.90
16732;DHT22;8484;50.904;9.192;2023-07-13T00:31:17;16.20;99.90
16732;DHT22;8484;50.904;9.192;2023-07-13T00:33:44;16.20;99.90
16732;DHT22;8484;50.904;9.192;2023-07-13T00:36:12;16.00;99.90
16732;DHT22;8484;50.904;9.192;2023-07-13T00:38:41;15.90;99.90
16732;DHT22;8484;50.904;9.192;2023-07-13T00:41:09;15.90;99.90
16732;DHT22;8484;50.904;9.192;2023-07-13T00:43:36;16.20;99.90
16732;DHT22;8484;50.904;9.192;2023-07-13T00:46:23;16.30;99.90
16732;DHT22;8484;50.904;9.192;2023-07-13T00:48:51;16.20;99.90
16732;DHT22;8484;50.904;9.192;2023-07-13T00:51:25;16.20;99.90
16732;DHT22;8484;50.904;9.192;2023-07-13T00:53:57;15.70;99.90
16732;DHT22;8484;50.904;9.192;2023-07-13T00:56:26;15.50;99.90
16732;DHT22;8484;50.904;9.192;2023-07-13T00:58:54;15.70;99.90
16732;DHT22;8484;50.904;9.192;2023-07-13T01:01:21;15.70;99.90
16732;DHT22;8484;50.904;9.192;2023-07-13T01:03:48;15.80;99.90
16732;DHT22;8484;50.904;9.192;2023-07-13T01:06:16;15.80;99.90
16732;DHT22;8484;50.904;9.192;2023-07-13T01:08:43;15.70;99.90
16732;DHT22;8484;50.904;9.192;2023-07-13T01:11:12;15.90;99.90
16732;DHT22;8484;50.904;9.192;2023-07-13T01:13:39;16.10;99.90
16732;DHT22;8484;50.904;9.192;2023-07-13T01:16:13;15.70;99.90
16732;DHT22;8484;50.904;9.192;2023-07-13T01:18:41;15.70;99.90
16732;DHT22;8484;50.904;9.192;2023-07-13T01:21:09;15.70;99.90
16732;DHT22;8484;50.904;9.192;2023-07-13T01:23:36;15.70;99.90
16732;DHT22;8484;50.904;9.192;2023-07-13T01:26:03;15.40;99.90
16732;DHT22;8484;50.904;9.192;2023-07-13T01:28:30;15.60;99.90
16732;DHT22;8484;50.904;9.192;2023-07-13T01:30:58;15.30;99.90
16732;DHT22;8484;50.904;9.192;2023-07-13T01:33:25;15.60;99.90
16732;DHT22;8484;50.904;9.192;2023-07-13T01:35:52;15.60;99.90
16732;DHT22;8484;50.904;9.192;2023-07-13T01:38:22;15.60;99.90
16732;DHT22;8484;50.904;9.192;2023-07-13T01:40:50;15.60;99.90
16732;DHT22;8484;50.904;9.192;2023-07-13T01:43:17;15.50;99.90
16732;DHT22;8484;50.904;9.192;2023-07-13T01:45:44;15.70;99.90
16732;DHT22;8484;50.904;9.192;2023-07-13T01:48:11;15.40;99.90
16732;DHT22;8484;50.904;9.192;2023-07-13T01:50:38;15.50;99.90
16732;DHT22;8484;50.904;9.192;2023-07-13T01:53:05;15.20;99.90
16732;DHT22;8484;50.904;9.192;2023-07-13T01:55:34;15.00;99.90
16732;DHT22;8484;50.904;9.192;2023-07-13T01:58:01;14.80;99.90
16732;DHT22;8484;50.904;9.192;2023-07-13T02:00:28;14.80;99.90
16732;DHT22;8484;50.904;9.192;2023-07-13T02:02:55;14.90;99.90
16732;DHT22;8484;50.904;9.192;2023-07-13T02:05:22;15.00;99.90
16732;DHT22;8484;50.904;9.192;2023-07-13T02:07:53;15.30;99.90
16732;DHT22;8484;50.904;9.192;2023-07-13T02:10:20;15.40;99.90
16732;DHT22;8484;50.904;9.192;2023-07-13T02:12:49;15.40;99.90
16732;DHT22;8484;50.904;9.192;2023-07-13T02:15:17;15.50;99.90
16732;DHT22;8484;50.904;9.192;2023-07-13T02:17:43;15.50;99.90
16732;DHT22;8484;50.904;9.192;2023-07-13T02:20:10;15.50;99.90
16732;DHT22;8484;50.904;9.192;2023-07-13T02:22:37;15.50;99.90
16732;DHT22;8484;50.904;9.192;2023-07-13T02:25:05;15.50;99.90
16732;DHT22;8484;50.904;9.192;2023-07-13T02:27:31;15.40;99.90
16732;DHT22;8484;50.904;9.192;2023-07-13T02:30:00;15.40;99.90
16732;DHT22;8484;50.904;9.192;2023-07-13T02:32:27;15.30;99.90
16732;DHT22;8484;50.904;9.192;2023-07-13T02:34:53;15.30;99.90
16732;DHT22;8484;50.904;9.192;2023-07-13T02:37:20;15.30;99.90
16732;DHT22;8484;50.904;9.192;2023-07-13T02:39:47;15.30;99.90
16732;DHT22;8484;50.904;9.192;2023-07-13T02:42:14;15.40;99.90
16732;DHT22;8484;50.904;9.192;2023-07-13T02:44:41;15.30;99.90
16732;DHT22;8484;50.904;9.192;2023-07-13T02:47:10;15.30;99.90
16732;DHT22;8484;50.904;9.192;2023-07-13T02:49:36;15.30;99.90
16732;DHT22;8484;50.904;9.192;2023-07-13T02:52:04;15.40;99.90
16732;DHT22;8484;50.904;9.192;2023-07-13T02:54:31;15.40;99.90
16732;DHT22;8484;50.904;9.192;2023-07-13T02:56:58;15.30;99.90
16732;DHT22;8484;50.904;9.192;2023-07-13T02:59:25;15.20;99.90
16732;DHT22;8484;50.904;9.192;2023-07-13T03:01:52;15.30;99.90
16732;DHT22;8484;50.904;9.192;2023-07-13T03:04:21;15.20;99.90
16732;DHT22;8484;50.904;9.192;2023-07-13T03:06:48;15.00;99.90
16732;DHT22;8484;50.904;9.192;2023-07-13T03:09:15;15.00;99.90
16732;DHT22;8484;50.904;9.192;2023-07-13T03:11:42;15.10;99.90
16732;DHT22;8484;50.904;9.192;2023-07-13T03:14:09;15.10;99.90
16732;DHT22;8484;50.904;9.192;2023-07-13T03:16:36;15.00;99.90
16732;DHT22;8484;50.904;9.192;2023-07-13T03:19:03;15.00;99.90
16732;DHT22;8484;50.904;9.192;2023-07-13T03:21:31;14.90;99.90
16732;DHT22;8484;50.904;9.192;2023-07-13T03:23:58;14.90;99.90
16732;DHT22;8484;50.904;9.192;2023-07-13T03:26:25;14.90;99.90
16732;DHT22;8484;50.904;9.192;2023-07-13T03:28:52;15.00;99.90
16732;DHT22;8484;50.904;9.192;2023-07-13T03:31:20;15.00;99.90
16732;DHT22;8484;50.904;9.192;2023-07-13T03:33:48;14.90;99.90
16732;DHT22;8484;50.904;9.192;2023-07-13T03:36:18;14.70;99.90
16732;DHT22;8484;50.904;9.192;2023-07-13T03:38:47;14.60;99.90
16732;DHT22;8484;50.904;9.192;2023-07-13T03:41:15;14.50;99.90
16732;DHT22;8484;50.904;9.192;2023-07-13T03:43:46;14.50;99.90
16732;DHT22;8484;50.904;9.192;2023-07-13T03:46:14;14.60;99.90
16732;DHT22;8484;50.904;9.192;2023-07-13T03:48:41;14.60;99.90
16732;DHT22;8484;50.904;9.192;2023-07-13T03:51:09;14.70;99.90
16732;DHT22;8484;50.904;9.192;2023-07-13T03:53:40;14.50;99.90
16732;DHT22;8484;50.904;9.192;2023-07-13T03:56:08;14.50;99.90
16732;DHT22;8484;50.904;9.192;2023-07-13T03:58:37;14.50;99.90
16732;DHT22;8484;50.904;9.192;2023-07-13T04:01:06;14.70;99.90
16732;DHT22;8484;50.904;9.192;2023-07-13T04:03:33;14.70;99.90
16732;DHT22;8484;50.904;9.192;2023-07-13T04:06:01;14.60;99.90
16732;DHT22;8484;50.904;9.192;2023-07-13T04:08:30;14.70;99.90
16732;DHT22;8484;50.904;9.192;2023-07-13T04:10:58;14.80;99.90
16732;DHT22;8484;50.904;9.192;2023-07-13T04:13:27;14.70;99.90
16732;DHT22;8484;50.904;9.192;2023-07-13T04:15:54;14.70;99.90
16732;DHT22;8484;50.904;9.192;2023-07-13T04:18:21;14.60;99.90
16732;DHT22;8484;50.904;9.192;2023-07-13T04:20:48;14.70;99.90
16732;DHT22;8484;50.904;9.192;2023-07-13T04:23:16;14.70;99.90
16732;DHT22;8484;50.904;9.192;2023-07-13T04:25:43;14.80;99.90
16732;DHT22;8484;50.904;9.192;2023-07-13T04:28:11;14.80;99.90
16732;DHT22;8484;50.904;9.192;2023-07-13T04:30:39;14.80;99.90
16732;DHT22;8484;50.904;9.192;2023-07-13T04:33:05;14.90;99.90
16732;DHT22;8484;50.904;9.192;2023-07-13T04:35:34;15.10;99.90
16732;DHT22;8484;50.904;9.192;2023-07-13T04:38:01;15.20;99.90
16732;DHT22;8484;50.904;9.192;2023-07-13T04:40:28;15.40;99.90
16732;DHT22;8484;50.904;9.192;2023-07-13T04:42:55;15.50;99.90
16732;DHT22;8484;50.904;9.192;2023-07-13T04:45:24;15.50;99.90
16732;DHT22;8484;50.904;9.192;2023-07-13T04:47:52;15.60;99.90
16732;DHT22;8484;50.904;9.192;2023-07-13T04:50:19;16.10;99.90
16732;DHT22;8484;50.904;9.192;2023-07-13T04:52:48;16.20;99.90
16732;DHT22;8484;50.904;9.192;2023-07-13T04:55:16;16.50;99.90
16732;DHT22;8484;50.904;9.192;2023-07-13T04:57:43;16.70;99.90
16732;DHT22;8484;50.904;9.192;2023-07-13T05:00:11;16.50;99.90
16732;DHT22;8484;50.904;9.192;2023-07-13T05:02:39;16.50;99.90
16732;DHT22;8484;50.904;9.192;2023-07-13T05:05:08;16.30;99.90
16732;DHT22;8484;50.904;9.192;2023-07-13T05:07:35;16.50;99.90
16732;DHT22;8484;50.904;9.192;2023-07-13T05:10:02;16.60;99.90
16732;DHT22;8484;50.904;9.192;2023-07-13T05:12:31;16.50;99.90
16732;DHT22;8484;50.904;9.192;2023-07-13T05:14:58;16.40;99.90
16732;DHT22;8484;50.904;9.192;2023-07-13T05:17:25;16.60;99.90
16732;DHT22;8484;50.904;9.192;2023-07-13T05:19:52;16.70;99.90
16732;DHT22;8484;50.904;9.192;2023-07-13T05:22:20;16.60;99.90
16732;DHT22;8484;50.904;9.192;2023-07-13T05:24:47;16.50;99.90
16732;DHT22;8484;50.904;9.192;2023-07-13T05:27:14;16.60;99.90
16732;DHT22;8484;50.904;9.192;2023-07-13T05:29:40;16.80;99.90
16732;DHT22;8484;50.904;9.192;2023-07-13T05:32:07;17.00;99.90
16732;DHT22;8484;50.904;9.192;2023-07-13T05:34:34;17.00;99.90
16732;DHT22;8484;50.904;9.192;2023-07-13T05:37:01;17.00;99.90
16732;DHT22;8484;50.904;9.192;2023-07-13T05:39:29;17.20;99.90
16732;DHT22;8484;50.904;9.192;2023-07-13T05:41:56;17.20;99.90
16732;DHT22;8484;50.904;9.192;2023-07-13T05:44:23;17.60;99.90
16732;DHT22;8484;50.904;9.192;2023-07-13T05:46:50;17.50;99.90
16732;DHT22;8484;50.904;9.192;2023-07-13T05:49:16;17.50;99.90
16732;DHT22;8484;50.904;9.192;2023-07-13T05:51:43;17.90;99.90
16732;DHT22;8484;50.904;9.192;2023-07-13T05:54:10;17.90;99.90
16732;DHT22;8484;50.904;9.192;2023-07-13T05:56:38;17.90;99.90
16732;DHT22;8484;50.904;9.192;2023-07-13T05:59:05;17.80;99.90
16732;DHT22;8484;50.904;9.192;2023-07-13T06:01:32;17.80;99.90
16732;DHT22;8484;50.904;9.192;2023-07-13T06:03:59;17.80;99.90
16732;DHT22;8484;50.904;9.192;2023-07-13T06:06:26;18.10;99.90
16732;DHT22;8484;50.904;9.192;2023-07-13T06:08:53;17.70;99.90
16732;DHT22;8484;50.904;9.192;2023-07-13T06:11:22;17.90;99.90
16732;DHT22;8484;50.904;9.192;2023-07-13T06:13:50;18.00;99.90
16732;DHT22;8484;50.904;9.192;2023-07-13T06:16:18;18.20;99.90
16732;DHT22;8484;50.904;9.192;2023-07-13T06:18:46;17.80;99.90
16732;DHT22;8484;50.904;9.192;2023-07-13T06:21:14;18.00;99.90
16732;DHT22;8484;50.904;9.192;2023-07-13T06:23:42;18.50;99.90
16732;DHT22;8484;50.904;9.192;2023-07-13T06:26:09;18.60;99.90
16732;DHT22;8484;50.904;9.192;2023-07-13T06:28:37;18.40;99.90
16732;DHT22;8484;50.904;9.192;2023-07-13T06:31:08;18.10;99.90
16732;DHT22;8484;50.904;9.192;2023-07-13T06:33:35;18.20;99.90
16732;DHT22;8484;50.904;9.192;2023-07-13T06:36:02;18.40;99.90
16732;DHT22;8484;50.904;9.192;2023-07-13T06:38:30;18.50;99.90
16732;DHT22;8484;50.904;9.192;2023-07-13T06:40:57;18.30;99.90
16732;DHT22;8484;50.904;9.192;2023-07-13T06:43:24;18.20;99.90
16732;DHT22;8484;50.904;9.192;2023-07-13T06:45:54;18.40;99.90
16732;DHT22;8484;50.904;9.192;2023-07-13T06:48:22;18.20;99.90
16732;DHT22;8484;50.904;9.192;2023-07-13T06:50:50;18.80;99.90
16732;DHT22;8484;50.904;9.192;2023-07-13T06:53:19;18.70;99.90
16732;DHT22;8484;50.904;9.192;2023-07-13T06:55:46;18.50;99.90
16732;DHT22;8484;50.904;9.192;2023-07-13T06:58:15;18.40;99.90
16732;DHT22;8484;50.904;9.192;2023-07-13T07:00:42;18.30;99.90
16732;DHT22;8484;50.904;9.192;2023-07-13T07:03:09;18.80;99.90
16732;DHT22;8484;50.904;9.192;2023-07-13T07:05:37;18.60;99.90
16732;DHT22;8484;50.904;9.192;2023-07-13T07:08:04;19.10;99.90
16732;DHT22;8484;50.904;9.192;2023-07-13T07:10:31;19.00;99.90
16732;DHT22;8484;50.904;9.192;2023-07-13T07:12:58;19.00;99.90
16732;DHT22;8484;50.904;9.192;2023-07-13T07:15:25;18.80;99.90
16732;DHT22;8484;50.904;9.192;2023-07-13T07:17:52;18.80;99.90
16732;DHT22;8484;50.904;9.192;2023-07-13T07:20:20;19.50;99.90
16732;DHT22;8484;50.904;9.192;2023-07-13T07:22:48;20.00;99.90
16732;DHT22;8484;50.904;9.192;2023-07-13T07:25:15;20.10;99.90
16732;DHT22;8484;50.904;9.192;2023-07-13T07:27:42;20.30;99.90
16732;DHT22;8484;50.904;9.192;2023-07-13T07:30:10;20.90;99.90
16732;DHT22;8484;50.904;9.192;2023-07-13T07:32:37;20.70;99.90
16732;DHT22;8484;50.904;9.192;2023-07-13T07:35:05;20.30;99.90
16732;DHT22;8484;50.904;9.192;2023-07-13T07:37:32;20.80;99.90
16732;DHT22;8484;50.904;9.192;2023-07-13T07:40:00;20.40;99.90
16732;DHT22;8484;50.904;9.192;2023-07-13T07:42:27;20.40;99.90
16732;DHT22;8484;50.904;9.192;2023-07-13T07:44:54;20.10;99.90
16732;DHT22;8484;50.904;9.192;2023-07-13T07:47:21;20.00;99.90
16732;DHT22;8484;50.904;9.192;2023-07-13T07:49:49;20.70;99.90
16732;DHT22;8484;50.904;9.192;2023-07-13T07:52:16;20.50;99.60
16732;DHT22;8484;50.904;9.192;2023-07-13T07:54:43;20.00;99.90
16732;DHT22;8484;50.904;9.192;2023-07-13T07:57:11;20.40;99.90
16732;DHT22;8484;50.904;9.192;2023-07-13T07:59:38;21.10;99.90
16732;DHT22;8484;50.904;9.192;2023-07-13T08:02:06;20.80;99.80
16732;DHT22;8484;50.904;9.192;2023-07-13T08:04:33;21.10;99.90
16732;DHT22;8484;50.904;9.192;2023-07-13T08:07:00;21.20;98.80
16732;DHT22;8484;50.904;9.192;2023-07-13T08:09:28;21.20;99.00
16732;DHT22;8484;50.904;9.192;2023-07-13T08:11:55;21.00;99.00
16732;DHT22;8484;50.904;9.192;2023-07-13T08:14:23;20.70;99.10
16732;DHT22;8484;50.904;9.192;2023-07-13T08:16:50;21.20;98.60
16732;DHT22;8484;50.904;9.192;2023-07-13T08:19:17;21.60;98.10
16732;DHT22;8484;50.904;9.192;2023-07-13T08:21:43;21.00;98.00
16732;DHT22;8484;50.904;9.192;2023-07-13T08:24:10;21.50;98.00
16732;DHT22;8484;50.904;9.192;2023-07-13T08:26:37;21.70;98.20
16732;DHT22;8484;50.904;9.192;2023-07-13T08:29:04;22.20;95.90
16732;DHT22;8484;50.904;9.192;2023-07-13T08:31:32;22.20;96.80
16732;DHT22;8484;50.904;9.192;2023-07-13T08:33:59;22.30;95.40
16732;DHT22;8484;50.904;9.192;2023-07-13T08:36:29;21.80;95.50
16732;DHT22;8484;50.904;9.192;2023-07-13T08:38:57;21.80;95.70
16732;DHT22;8484;50.904;9.192;2023-07-13T08:41:24;21.70;96.10
16732;DHT22;8484;50.904;9.192;2023-07-13T08:43:54;21.60;96.10
16732;DHT22;8484;50.904;9.192;2023-07-13T08:46:25;21.60;94.80
16732;DHT22;8484;50.904;9.192;2023-07-13T08:48:57;21.90;95.10
16732;DHT22;8484;50.904;9.192;2023-07-13T08:51:32;22.10;95.20
16732;DHT22;8484;50.904;9.192;2023-07-13T08:54:02;22.00;95.50
16732;DHT22;8484;50.904;9.192;2023-07-13T08:56:30;22.30;94.20
16732;DHT22;8484;50.904;9.192;2023-07-13T08:59:09;21.90;94.50
16732;DHT22;8484;50.904;9.192;2023-07-13T09:01:59;22.20;93.70
16732;DHT22;8484;50.904;9.192;2023-07-13T09:04:33;22.60;93.60
16732;DHT22;8484;50.904;9.192;2023-07-13T09:07:07;23.10;93.50
16732;DHT22;8484;50.904;9.192;2023-07-13T09:09:47;23.00;93.40
16732;DHT22;8484;50.904;9.192;2023-07-13T09:12:20;23.70;92.20
16732;DHT22;8484;50.904;9.192;2023-07-13T09:14:53;23.80;91.50
16732;DHT22;8484;50.904;9.192;2023-07-13T09:17:23;22.50;92.30
16732;DHT22;8484;50.904;9.192;2023-07-13T09:19:58;22.70;92.20
16732;DHT22;8484;50.904;9.192;2023-07-13T09:22:27;23.20;92.40
16732;DHT22;8484;50.904;9.192;2023-07-13T09:25:02;23.40;92.10
16732;DHT22;8484;50.904;9.192;2023-07-13T09:27:36;23.40;91.20
16732;DHT22;8484;50.904;9.192;2023-07-13T09:30:20;23.30;91.70
16732;DHT22;8484;50.904;9.192;2023-07-13T09:32:52;23.50;91.40
16732;DHT22;8484;50.904;9.192;2023-07-13T09:35:24;23.30;91.30
16732;DHT22;8484;50.904;9.192;2023-07-13T09:37:57;24.50;90.30
16732;DHT22;8484;50.904;9.192;2023-07-13T09:40:29;23.70;91.50
16732;DHT22;8484;50.904;9.192;2023-07-13T09:42:58;23.20;91.40
16732;DHT22;8484;50.904;9.192;2023-07-13T09:45:30;24.00;92.10
16732;DHT22;8484;50.904;9.192;2023-07-13T09:48:04;24.10;89.70
16732;DHT22;8484;50.904;9.192;2023-07-13T09:50:33;23.60;89.70
16732;DHT22;8484;50.904;9.192;2023-07-13T09:53:01;24.00;90.10
16732;DHT22;8484;50.904;9.192;2023-07-13T09:55:31;24.50;89.60
16732;DHT22;8484;50.904;9.192;2023-07-13T09:58:03;24.00;90.10
16732;DHT22;8484;50.904;9.192;2023-07-13T10:00:31;23.60;89.80
16732;DHT22;8484;50.904;9.192;2023-07-13T10:03:04;24.30;90.40
16732;DHT22;8484;50.904;9.192;2023-07-13T10:05:40;25.10;88.40
16732;DHT22;8484;50.904;9.192;2023-07-13T10:08:20;25.10;88.30
16732;DHT22;8484;50.904;9.192;2023-07-13T10:10:53;24.70;88.40
16732;DHT22;8484;50.904;9.192;2023-07-13T10:13:29;24.80;88.30
16732;DHT22;8484;50.904;9.192;2023-07-13T10:15:59;25.30;85.90
16732;DHT22;8484;50.904;9.192;2023-07-13T10:18:26;24.90;84.90
16732;DHT22;8484;50.904;9.192;2023-07-13T10:21:00;24.70;85.70
16732;DHT22;8484;50.904;9.192;2023-07-13T10:23:35;24.70;85.50
16732;DHT22;8484;50.904;9.192;2023-07-13T10:26:02;25.70;84.60
16732;DHT22;8484;50.904;9.192;2023-07-13T10:28:35;25.50;83.50
16732;DHT22;8484;50.904;9.192;2023-07-13T10:31:06;25.50;80.60
16732;DHT22;8484;50.904;9.192;2023-07-13T10:33:37;25.10;81.50
16732;DHT22;8484;50.904;9.192;2023-07-13T10:36:13;25.10;84.00
16732;DHT22;8484;50.904;9.192;2023-07-13T10:38:40;24.80;82.90
16732;DHT22;8484;50.904;9.192;2023-07-13T10:41:11;24.90;80.40
16732;DHT22;8484;50.904;9.192;2023-07-13T10:43:41;24.60;82.10
16732;DHT22;8484;50.904;9.192;2023-07-13T10:46:10;24.50;82.40
16732;DHT22;8484;50.904;9.192;2023-07-13T10:48:39;24.40;82.40
16732;DHT22;8484;50.904;9.192;2023-07-13T10:51:10;25.50;82.30
16732;DHT22;8484;50.904;9.192;2023-07-13T10:53:38;25.90;79.50
16732;DHT22;8484;50.904;9.192;2023-07-13T10:56:19;25.00;80.40
16732;DHT22;8484;50.904;9.192;2023-07-13T10:59:02;24.00;81.70
16732;DHT22;8484;50.904;9.192;2023-07-13T11:01:40;23.60;84.30
16732;DHT22;8484;50.904;9.192;2023-07-13T11:04:12;23.50;83.20
16732;DHT22;8484;50.904;9.192;2023-07-13T11:06:52;24.50;80.60
16732;DHT22;8484;50.904;9.192;2023-07-13T11:09:33;24.50;81.00
16732;DHT22;8484;50.904;9.192;2023-07-13T11:12:07;23.80;81.30
16732;DHT22;8484;50.904;9.192;2023-07-13T11:14:36;23.90;81.10
16732;DHT22;8484;50.904;9.192;2023-07-13T11:17:34;24.30;81.10
16732;DHT22;8484;50.904;9.192;2023-07-13T11:20:24;23.60;80.70
16732;DHT22;8484;50.904;9.192;2023-07-13T11:23:19;23.90;81.70
16732;DHT22;8484;50.904;9.192;2023-07-13T11:25:47;24.90;80.70
16732;DHT22;8484;50.904;9.192;2023-07-13T11:28:17;25.60;80.40
16732;DHT22;8484;50.904;9.192;2023-07-13T11:30:47;26.10;78.50
16732;DHT22;8484;50.904;9.192;2023-07-13T11:33:17;26.30;80.30
16732;DHT22;8484;50.904;9.192;2023-07-13T11:35:51;26.20;78.00
16732;DHT22;8484;50.904;9.192;2023-07-13T11:38:24;25.60;78.10
16732;DHT22;8484;50.904;9.192;2023-07-13T11:40:54;24.50;79.90
16732;DHT22;8484;50.904;9.192;2023-07-13T11:43:22;24.10;81.00
16732;DHT22;8484;50.904;9.192;2023-07-13T11:45:50;24.40;82.20
16732;DHT22;8484;50.904;9.192;2023-07-13T11:48:25;25.20;80.00
16732;DHT22;8484;50.904;9.192;2023-07-13T11:50:56;24.70;80.90
16732;DHT22;8484;50.904;9.192;2023-07-13T11:53:27;24.80;80.00
16732;DHT22;8484;50.904;9.192;2023-07-13T11:55:55;24.40;80.40
16732;DHT22;8484;50.904;9.192;2023-07-13T11:58:24;24.70;81.20
16732;DHT22;8484;50.904;9.192;2023-07-13T12:00:52;25.60;78.30
16732;DHT22;8484;50.904;9.192;2023-07-13T12:03:22;26.50;77.00
16732;DHT22;8484;50.904;9.192;2023-07-13T12:06:02;26.10;75.60
16732;DHT22;8484;50.904;9.192;2023-07-13T12:08:37;25.50;75.60
16732;DHT22;8484;50.904;9.192;2023-07-13T12:11:09;25.70;76.10
16732;DHT22;8484;50.904;9.192;2023-07-13T12:13:41;26.00;75.40
16732;DHT22;8484;50.904;9.192;2023-07-13T12:16:16;26.60;75.80
16732;DHT22;8484;50.904;9.192;2023-07-13T12:18:44;26.30;73.70
16732;DHT22;8484;50.904;9.192;2023-07-13T12:21:16;26.70;75.70
16732;DHT22;8484;50.904;9.192;2023-07-13T12:23:46;26.40;73.90
16732;DHT22;8484;50.904;9.192;2023-07-13T12:26:15;26.10;76.00
16732;DHT22;8484;50.904;9.192;2023-07-13T12:28:46;25.20;78.50
16732;DHT22;8484;50.904;9.192;2023-07-13T12:31:25;25.50;78.80
16732;DHT22;8484;50.904;9.192;2023-07-13T12:34:00;26.30;77.00
16732;DHT22;8484;50.904;9.192;2023-07-13T12:36:31;26.10;78.70
16732;DHT22;8484;50.904;9.192;2023-07-13T12:39:09;24.70;78.90
16732;DHT22;8484;50.904;9.192;2023-07-13T12:41:39;25.10;79.20
16732;DHT22;8484;50.904;9.192;2023-07-13T12:44:10;25.30;77.10
16732;DHT22;8484;50.904;9.192;2023-07-13T12:46:38;24.70;77.60
16732;DHT22;8484;50.904;9.192;2023-07-13T12:49:06;24.90;79.30
16732;DHT22;8484;50.904;9.192;2023-07-13T12:51:33;25.10;79.30
16732;DHT22;8484;50.904;9.192;2023-07-13T12:54:13;25.60;76.60
16732;DHT22;8484;50.904;9.192;2023-07-13T12:56:41;24.40;77.90
16732;DHT22;8484;50.904;9.192;2023-07-13T12:59:17;24.10;79.70
16732;DHT22;8484;50.904;9.192;2023-07-13T13:01:46;24.30;78.80
16732;DHT22;8484;50.904;9.192;2023-07-13T13:04:15;24.10;78.90
16732;DHT22;8484;50.904;9.192;2023-07-13T13:06:47;24.30;78.80
16732;DHT22;8484;50.904;9.192;2023-07-13T13:09:17;24.50;77.90
16732;DHT22;8484;50.904;9.192;2023-07-13T13:11:45;24.50;80.20
16732;DHT22;8484;50.904;9.192;2023-07-13T13:14:12;24.50;80.40
16732;DHT22;8484;50.904;9.192;2023-07-13T13:16:46;24.10;80.20
16732;DHT22;8484;50.904;9.192;2023-07-13T13:19:16;24.30;79.40
16732;DHT22;8484;50.904;9.192;2023-07-13T13:21:45;24.30;78.00
16732;DHT22;8484;50.904;9.192;2023-07-13T13:24:13;24.60;79.20
16732;DHT22;8484;50.904;9.192;2023-07-13T13:26:42;26.00;76.00
16732;DHT22;8484;50.904;9.192;2023-07-13T13:29:12;25.80;76.60
16732;DHT22;8484;50.904;9.192;2023-07-13T13:31:40;25.40;75.50
16732;DHT22;8484;50.904;9.192;2023-07-13T13:34:09;24.90;79.10
16732;DHT22;8484;50.904;9.192;2023-07-13T13:36:36;24.50;78.10
16732;DHT22;8484;50.904;9.192;2023-07-13T13:39:08;24.30;79.10
16732;DHT22;8484;50.904;9.192;2023-07-13T13:41:44;24.40;78.90
16732;DHT22;8484;50.904;9.192;2023-07-13T13:44:12;24.30;79.10
16732;DHT22;8484;50.904;9.192;2023-07-13T13:46:40;24.90;78.90
16732;DHT22;8484;50.904;9.192;2023-07-13T13:49:08;24.90;79.10
16732;DHT22;8484;50.904;9.192;2023-07-13T13:51:38;24.70;77.80
16732;DHT22;8484;50.904;9.192;2023-07-13T13:54:08;24.50;78.70
16732;DHT22;8484;50.904;9.192;2023-07-13T13:56:36;25.00;79.10
16732;DHT22;8484;50.904;9.192;2023-07-13T13:59:04;24.40;78.40
16732;DHT22;8484;50.904;9.192;2023-07-13T14:01:31;24.50;78.90
16732;DHT22;8484;50.904;9.192;2023-07-13T14:03:58;24.30;78.20
16732;DHT22;8484;50.904;9.192;2023-07-13T14:06:25;24.00;78.80
16732;DHT22;8484;50.904;9.192;2023-07-13T14:08:51;24.20;80.40
16732;DHT22;8484;50.904;9.192;2023-07-13T14:11:21;24.60;79.50
16732;DHT22;8484;50.904;9.192;2023-07-13T14:13:50;24.60;78.90
16732;DHT22;8484;50.904;9.192;2023-07-13T14:16:20;23.80;79.30
16732;DHT22;8484;50.904;9.192;2023-07-13T14:18:48;24.00;79.10
16732;DHT22;8484;50.904;9.192;2023-07-13T14:21:17;23.80;79.50
16732;DHT22;8484;50.904;9.192;2023-07-13T14:23:45;23.80;80.50
16732;DHT22;8484;50.904;9.192;2023-07-13T14:26:14;23.40;80.60
16732;DHT22;8484;50.904;9.192;2023-07-13T14:28:43;23.20;81.60
16732;DHT22;8484;50.904;9.192;2023-07-13T14:31:11;23.50;81.40
16732;DHT22;8484;50.904;9.192;2023-07-13T14:33:40;23.50;81.30
16732;DHT22;8484;50.904;9.192;2023-07-13T14:36:21;24.10;80.50
16732;DHT22;8484;50.904;9.192;2023-07-13T14:38:49;24.60;80.80
16732;DHT22;8484;50.904;9.192;2023-07-13T14:41:16;24.70;80.20
16732;DHT22;8484;50.904;9.192;2023-07-13T14:43:43;24.30;79.30
16732;DHT22;8484;50.904;9.192;2023-07-13T14:49:05;23.80;80.60
16732;DHT22;8484;50.904;9.192;2023-07-13T14:51:33;23.80;82.20
16732;DHT22;8484;50.904;9.192;2023-07-13T14:54:03;24.20;82.00
16732;DHT22;8484;50.904;9.192;2023-07-13T14:56:30;23.80;81.70
16732;DHT22;8484;50.904;9.192;2023-07-13T14:58:57;23.70;82.90
16732;DHT22;8484;50.904;9.192;2023-07-13T15:01:24;23.60;83.90
16732;DHT22;8484;50.904;9.192;2023-07-13T15:03:52;23.70;84.60
16732;DHT22;8484;50.904;9.192;2023-07-13T15:06:20;23.70;83.50
16732;DHT22;8484;50.904;9.192;2023-07-13T15:08:47;23.60;83.30
16732;DHT22;8484;50.904;9.192;2023-07-13T15:11:16;23.00;84.10
16732;DHT22;8484;50.904;9.192;2023-07-13T15:13:43;23.40;84.40
16732;DHT22;8484;50.904;9.192;2023-07-13T15:16:16;23.80;84.50
16732;DHT22;8484;50.904;9.192;2023-07-13T15:18:44;23.30;83.90
16732;DHT22;8484;50.904;9.192;2023-07-13T15:21:13;23.40;83.20
16732;DHT22;8484;50.904;9.192;2023-07-13T15:23:43;24.00;83.50
16732;DHT22;8484;50.904;9.192;2023-07-13T15:26:12;23.20;83.80
16732;DHT22;8484;50.904;9.192;2023-07-13T15:28:41;23.30;83.40
16732;DHT22;8484;50.904;9.192;2023-07-13T15:31:18;23.60;82.70
16732;DHT22;8484;50.904;9.192;2023-07-13T15:33:46;23.60;81.30
16732;DHT22;8484;50.904;9.192;2023-07-13T15:36:15;23.90;82.80
16732;DHT22;8484;50.904;9.192;2023-07-13T15:38:45;24.10;80.10
16732;DHT22;8484;50.904;9.192;2023-07-13T15:41:17;23.30;80.90
16732;DHT22;8484;50.904;9.192;2023-07-13T15:43:46;23.00;81.20
16732;DHT22;8484;50.904;9.192;2023-07-13T15:46:13;23.30;81.50
16732;DHT22;8484;50.904;9.192;2023-07-13T15:48:40;23.20;81.80
16732;DHT22;8484;50.904;9.192;2023-07-13T15:51:12;23.20;81.20
16732;DHT22;8484;50.904;9.192;2023-07-13T15:53:41;23.50;82.20
16732;DHT22;8484;50.904;9.192;2023-07-13T15:56:18;24.20;81.40
16732;DHT22;8484;50.904;9.192;2023-07-13T15:58:45;24.70;79.40
16732;DHT22;8484;50.904;9.192;2023-07-13T16:01:13;24.80;80.40